createdAt,value
2022-12-25T00:01:10.274Z,11.40
2022-12-25T00:04:13.400Z,11.53
2022-12-25T00:07:16.466Z,11.67
2022-12-25T00:10:19.920Z,10.83
2022-12-25T00:13:22.918Z,11.40
2022-12-25T00:16:28.044Z,10.63
2022-12-25T00:19:31.192Z,11.40
2022-12-25T00:22:34.192Z,11.00
2022-12-25T00:25:40.659Z,10.90
2022-12-25T00:28:44.419Z,10.93
2022-12-25T00:31:48.816Z,10.70
2022-12-25T00:34:51.816Z,10.60
2022-12-25T00:37:54.822Z,10.80
2022-12-25T00:40:57.849Z,9.83
2022-12-25T00:44:00.839Z,11.20
2022-12-25T00:47:05.363Z,9.73
2022-12-25T00:50:09.632Z,9.33
2022-12-25T00:53:12.723Z,10.00
2022-12-25T00:56:15.733Z,9.20
2022-12-25T00:59:18.809Z,9.10
2022-12-25T01:02:26.475Z,8.80
2022-12-25T01:05:29.621Z,9.07
2022-12-25T01:08:35.797Z,8.43
2022-12-25T01:11:37.853Z,8.13
2022-12-25T01:14:40.823Z,8.40
2022-12-25T01:17:46.123Z,8.03
2022-12-25T01:20:49.483Z,8.83
2022-12-25T01:23:53.579Z,8.27
2022-12-25T01:26:56.565Z,7.70
2022-12-25T01:29:59.522Z,7.20
2022-12-25T01:33:03.941Z,7.27
2022-12-25T01:36:15.219Z,7.43
2022-12-25T01:39:18.298Z,7.50
2022-12-25T01:42:23.708Z,7.20
2022-12-25T01:45:47.725Z,7.47
2022-12-25T01:48:54.451Z,7.40
2022-12-25T01:52:00.116Z,7.13
2022-12-25T01:55:05.078Z,6.80
2022-12-25T01:58:08.118Z,7.13
2022-12-25T02:01:11.938Z,6.27
2022-12-25T02:04:22.563Z,6.60
2022-12-25T02:07:28.076Z,6.30
2022-12-25T02:10:31.477Z,5.87
2022-12-25T02:13:34.498Z,6.30
2022-12-25T02:16:57.879Z,6.63
2022-12-25T02:20:29.079Z,6.13
2022-12-25T02:24:11.039Z,6.57
2022-12-25T02:27:25.894Z,5.50
2022-12-25T02:30:35.644Z,6.60
2022-12-25T02:34:10.462Z,5.63
2022-12-25T02:37:17.862Z,6.27
2022-12-25T02:40:26.304Z,6.17
2022-12-25T02:43:50.328Z,5.90
2022-12-25T02:47:12.619Z,5.97
2022-12-25T02:50:35.118Z,6.60
2022-12-25T02:53:59.486Z,5.80
2022-12-25T02:57:25.391Z,5.27
2022-12-25T03:00:45.844Z,5.40
2022-12-25T03:04:10.891Z,5.30
2022-12-25T03:07:17.729Z,5.40
2022-12-25T03:10:39.171Z,4.93
2022-12-25T03:13:44.548Z,5.60
2022-12-25T03:16:50.999Z,5.80
2022-12-25T03:20:13.400Z,5.30
2022-12-25T03:23:39.923Z,4.93
2022-12-25T03:26:59.011Z,5.47
2022-12-25T03:30:20.300Z,5.53
2022-12-25T03:33:47.688Z,5.37
2022-12-25T03:37:09.986Z,5.50
2022-12-25T03:40:41.896Z,5.30
2022-12-25T03:44:12.876Z,5.30
2022-12-25T03:47:37.910Z,5.60
2022-12-25T03:51:03.720Z,5.20
2022-12-25T03:54:28.693Z,5.33
2022-12-25T03:57:52.515Z,5.30
2022-12-25T04:01:12.939Z,6.00
2022-12-25T04:04:33.391Z,5.73
2022-12-25T04:07:54.072Z,5.40
2022-12-25T04:11:16.200Z,5.60
2022-12-25T04:14:36.694Z,5.47
2022-12-25T04:17:57.151Z,5.80
2022-12-25T04:21:17.317Z,5.30
2022-12-25T04:24:40.051Z,5.57
2022-12-25T04:28:01.923Z,6.20
2022-12-25T04:31:22.436Z,5.83
2022-12-25T04:34:57.509Z,5.80
2022-12-25T04:38:00.549Z,6.00
2022-12-25T04:41:04.043Z,6.43
2022-12-25T04:44:08.481Z,6.20
2022-12-25T04:47:11.914Z,5.63
2022-12-25T04:50:15.128Z,5.80
2022-12-25T04:53:19.981Z,5.60
2022-12-25T04:56:23.350Z,5.10
2022-12-25T04:59:27.806Z,5.23
2022-12-25T05:02:30.941Z,5.73
2022-12-25T05:05:34.100Z,5.17
2022-12-25T05:08:37.542Z,4.97
2022-12-25T05:11:40.655Z,4.90
2022-12-25T05:14:45.150Z,5.37
2022-12-25T05:17:48.115Z,5.10
2022-12-25T05:20:54.672Z,5.40
2022-12-25T05:23:58.905Z,5.47
2022-12-25T05:27:01.946Z,5.03
2022-12-25T05:30:07.352Z,4.73
2022-12-25T05:33:10.382Z,4.53
2022-12-25T05:36:14.110Z,4.70
2022-12-25T05:39:17.125Z,4.90
2022-12-25T05:42:20.108Z,4.00
2022-12-25T05:45:24.563Z,4.23
2022-12-25T05:48:27.592Z,4.73
2022-12-25T05:51:30.924Z,4.80
2022-12-25T05:54:33.921Z,4.03
2022-12-25T05:57:36.959Z,4.40
2022-12-25T06:00:42.107Z,4.50
2022-12-25T06:03:45.252Z,4.10
2022-12-25T06:06:48.394Z,3.90
2022-12-25T06:09:51.489Z,4.50
2022-12-25T06:12:55.538Z,4.50
2022-12-25T06:16:00.295Z,4.23
2022-12-25T06:19:03.383Z,3.20
2022-12-25T06:22:06.391Z,3.90
2022-12-25T06:25:10.392Z,3.53
2022-12-25T06:28:13.679Z,3.67
2022-12-25T06:31:22.152Z,16.40
2022-12-25T06:34:25.172Z,6.97
2022-12-25T06:37:28.181Z,8.90
2022-12-25T06:40:31.129Z,10.50
2022-12-25T06:43:34.411Z,10.80
2022-12-25T06:46:38.831Z,11.60
2022-12-25T06:49:41.810Z,12.70
2022-12-25T06:52:44.876Z,10.90
2022-12-25T06:55:47.973Z,10.87
2022-12-25T06:58:53.045Z,10.83
2022-12-25T07:01:58.831Z,10.20
2022-12-25T07:05:02.931Z,9.13
2022-12-25T07:08:06.405Z,8.77
2022-12-25T07:11:09.998Z,8.30
2022-12-25T07:14:23.858Z,8.43
2022-12-25T07:17:28.861Z,7.60
2022-12-25T07:20:32.321Z,7.53
2022-12-25T07:23:36.771Z,8.40
2022-12-25T07:26:39.813Z,10.67
2022-12-25T07:29:42.780Z,11.07
2022-12-25T07:32:50.229Z,10.60
2022-12-25T07:35:53.573Z,11.77
2022-12-25T07:38:56.669Z,12.13
2022-12-25T07:41:59.711Z,12.33
2022-12-25T07:45:04.205Z,10.50
2022-12-25T07:48:15.327Z,9.60
2022-12-25T07:51:19.631Z,9.80
2022-12-25T07:54:22.670Z,10.53
2022-12-25T07:57:25.765Z,10.60
2022-12-25T08:00:32.725Z,5.97
2022-12-25T08:03:37.458Z,3.43
2022-12-25T08:06:40.601Z,3.60
2022-12-25T08:09:43.605Z,3.20
2022-12-25T08:12:46.742Z,44.67
2022-12-25T08:15:50.198Z,82.53
2022-12-25T08:18:55.133Z,73.03
2022-12-25T08:21:58.179Z,84.00
2022-12-25T08:25:01.560Z,79.50
2022-12-25T08:28:04.766Z,69.00
2022-12-25T08:31:09.887Z,77.77
2022-12-25T08:34:14.369Z,76.33
2022-12-25T08:37:17.396Z,72.80
2022-12-25T08:40:20.435Z,75.47
2022-12-25T08:43:23.519Z,71.93
2022-12-25T08:46:26.606Z,75.00
2022-12-25T08:49:31.084Z,70.27
2022-12-25T08:52:34.266Z,72.30
2022-12-25T08:55:37.277Z,69.70
2022-12-25T08:58:40.669Z,65.20
2022-12-25T09:01:43.818Z,59.07
2022-12-25T09:04:48.554Z,52.80
2022-12-25T09:07:51.547Z,48.50
2022-12-25T09:10:54.661Z,46.83
2022-12-25T09:13:57.709Z,45.77
2022-12-25T09:17:00.790Z,45.13
2022-12-25T09:20:06.243Z,44.23
2022-12-25T09:23:13.736Z,42.20
2022-12-25T09:26:18.823Z,41.80
2022-12-25T09:29:21.870Z,40.30
2022-12-25T09:32:24.890Z,38.80
2022-12-25T09:35:29.401Z,37.53
2022-12-25T09:38:33.004Z,36.57
2022-12-25T09:41:41.240Z,36.23
2022-12-25T09:44:47.264Z,35.57
2022-12-25T09:47:50.826Z,34.07
2022-12-25T09:51:01.214Z,33.97
2022-12-25T09:54:10.463Z,31.90
2022-12-25T09:57:14.808Z,32.90
2022-12-25T10:00:20.206Z,28.40
2022-12-25T10:03:39.719Z,26.30
2022-12-25T10:06:56.996Z,24.30
2022-12-25T10:10:13.349Z,22.90
2022-12-25T10:13:37.041Z,20.87
2022-12-25T10:16:52.654Z,20.30
2022-12-25T10:20:03.485Z,19.03
2022-12-25T10:23:17.303Z,15.60
2022-12-25T10:26:22.096Z,15.40
2022-12-25T10:29:25.222Z,13.90
2022-12-25T10:32:28.448Z,13.00
2022-12-25T10:35:33.055Z,12.37
2022-12-25T10:38:37.787Z,11.90
2022-12-25T10:42:01.264Z,11.40
2022-12-25T10:45:08.085Z,13.17
2022-12-25T10:48:21.328Z,14.30
2022-12-25T10:51:32.111Z,14.53
2022-12-25T10:54:37.312Z,14.80
2022-12-25T10:57:47.476Z,14.60
2022-12-25T11:00:55.267Z,15.00
2022-12-25T11:03:58.403Z,13.77
2022-12-25T11:07:07.053Z,14.60
2022-12-25T11:10:23.557Z,14.20
2022-12-25T11:13:29.195Z,13.50
2022-12-25T11:16:40.290Z,13.03
2022-12-25T11:19:53.829Z,9.77
2022-12-25T11:22:56.913Z,7.60
2022-12-25T11:26:03.535Z,5.63
2022-12-25T11:29:18.450Z,6.07
2022-12-25T11:32:27.355Z,6.80
2022-12-25T11:35:46.786Z,7.10
2022-12-25T11:38:49.785Z,6.90
2022-12-25T11:41:59.477Z,7.47
2022-12-25T11:45:07.004Z,7.50
2022-12-25T11:48:15.428Z,8.43
2022-12-25T11:51:19.985Z,8.10
2022-12-25T11:54:29.099Z,7.67
2022-12-25T11:57:36.003Z,9.57
2022-12-25T12:00:39.491Z,8.20
2022-12-25T12:03:43.764Z,8.43
2022-12-25T12:06:51.510Z,8.67
2022-12-25T12:10:04.028Z,8.03
2022-12-25T12:13:27.190Z,7.87
2022-12-25T12:16:30.819Z,7.60
2022-12-25T12:19:34.843Z,8.10
2022-12-25T12:22:37.968Z,7.87
2022-12-25T12:25:42.312Z,7.70
2022-12-25T12:28:49.619Z,6.87
2022-12-25T12:31:53.952Z,7.50
2022-12-25T12:34:58.214Z,7.57
2022-12-25T12:38:05.544Z,7.00
2022-12-25T12:41:09.669Z,7.10
2022-12-25T12:44:16.999Z,7.27
2022-12-25T12:47:39.143Z,7.53
2022-12-25T12:50:43.786Z,7.60
2022-12-25T12:53:46.771Z,7.40
2022-12-25T12:57:00.846Z,7.03
2022-12-25T13:00:10.784Z,7.00
2022-12-25T13:03:32.234Z,6.83
2022-12-25T13:06:42.039Z,7.13
2022-12-25T13:10:01.025Z,7.77
2022-12-25T13:13:08.161Z,9.50
2022-12-25T13:16:23.757Z,10.30
2022-12-25T13:19:29.599Z,10.53
2022-12-25T13:22:34.862Z,10.83
2022-12-25T13:25:37.922Z,10.90
2022-12-25T13:28:41.073Z,11.97
2022-12-25T13:31:45.552Z,14.63
2022-12-25T13:34:49.334Z,10.20
2022-12-25T13:37:52.717Z,18.40
2022-12-25T13:41:23.539Z,24.30
2022-12-25T13:44:28.707Z,29.77
2022-12-25T13:47:34.820Z,26.57
2022-12-25T13:50:38.436Z,26.57
2022-12-25T13:53:41.474Z,25.97
2022-12-25T13:56:49.597Z,25.10
2022-12-25T13:59:53.138Z,22.97
2022-12-25T14:02:58.207Z,21.80
2022-12-25T14:06:02.649Z,17.63
2022-12-25T14:09:06.006Z,17.47
2022-12-25T14:12:14.177Z,16.20
2022-12-25T14:15:23.526Z,15.83
2022-12-25T14:18:29.030Z,16.10
2022-12-25T14:21:34.297Z,14.80
2022-12-25T14:24:37.801Z,13.93
2022-12-25T14:27:41.295Z,14.03
2022-12-25T14:30:44.563Z,13.63
2022-12-25T14:33:49.896Z,12.50
2022-12-25T14:36:53.783Z,13.00
2022-12-25T14:40:00.002Z,12.87
2022-12-25T14:43:05.757Z,12.93
2022-12-25T14:46:09.141Z,12.93
2022-12-25T14:49:25.447Z,12.20
2022-12-25T14:52:31.365Z,12.30
2022-12-25T14:55:34.463Z,11.90
2022-12-25T14:58:43.146Z,12.00
2022-12-25T15:01:52.175Z,11.77
2022-12-25T15:04:56.702Z,11.03
2022-12-25T15:08:18.991Z,11.60
2022-12-25T15:11:22.039Z,10.83
2022-12-25T15:14:25.559Z,11.67
2022-12-25T15:17:31.418Z,12.10
2022-12-25T15:20:36.497Z,12.97
2022-12-25T15:23:39.512Z,11.90
2022-12-25T15:26:42.607Z,13.30
2022-12-25T15:30:09.273Z,12.97
2022-12-25T15:33:13.901Z,11.40
2022-12-25T15:36:18.324Z,11.70
2022-12-25T15:39:21.335Z,11.20
2022-12-25T15:42:25.909Z,10.50
2022-12-25T15:45:30.506Z,10.83
2022-12-25T15:48:33.621Z,11.10
2022-12-25T15:51:38.233Z,10.57
2022-12-25T15:54:41.264Z,9.80
2022-12-25T15:57:47.219Z,9.70
2022-12-25T16:00:51.544Z,10.60
2022-12-25T16:03:54.721Z,10.93
2022-12-25T16:07:00.678Z,11.30
2022-12-25T16:10:03.706Z,12.03
2022-12-25T16:13:06.843Z,11.33
2022-12-25T16:16:09.980Z,11.67
2022-12-25T16:19:13.089Z,11.20
2022-12-25T16:22:21.572Z,11.27
2022-12-25T16:25:25.116Z,10.97
2022-12-25T16:28:28.108Z,11.10
2022-12-25T16:31:31.102Z,10.40
2022-12-25T16:34:34.177Z,11.13
2022-12-25T16:37:40.470Z,11.60
2022-12-25T16:40:44.538Z,11.50
2022-12-25T16:43:48.019Z,11.50
2022-12-25T16:46:51.077Z,11.70
2022-12-25T16:49:54.240Z,13.70
2022-12-25T16:52:58.770Z,13.80
2022-12-25T16:56:07.039Z,14.40
2022-12-25T16:59:10.104Z,15.20
2022-12-25T17:02:16.708Z,16.07
2022-12-25T17:05:19.875Z,17.13
2022-12-25T17:08:24.315Z,16.23
2022-12-25T17:11:30.380Z,16.00
2022-12-25T17:14:34.299Z,17.33
2022-12-25T17:17:37.311Z,14.97
2022-12-25T17:20:40.454Z,17.03
2022-12-25T17:23:45.229Z,18.13
2022-12-25T17:26:48.894Z,18.53
2022-12-25T17:29:51.879Z,18.73
2022-12-25T17:32:55.292Z,19.30
2022-12-25T17:36:04.069Z,20.37
2022-12-25T17:39:08.690Z,19.40
2022-12-25T17:42:11.760Z,20.17
2022-12-25T17:45:15.061Z,19.90
2022-12-25T17:48:18.207Z,20.27
2022-12-25T17:51:23.480Z,20.03
2022-12-25T17:54:28.078Z,21.43
2022-12-25T17:57:31.154Z,20.93
2022-12-25T18:00:34.175Z,21.30
2022-12-25T18:03:37.915Z,21.60
2022-12-25T18:06:41.373Z,15.00
2022-12-25T18:09:45.747Z,13.60
2022-12-25T18:12:48.852Z,14.17
2022-12-25T18:15:52.148Z,15.23
2022-12-25T18:18:55.568Z,15.23
2022-12-25T18:21:58.530Z,16.73
2022-12-25T18:25:02.882Z,16.50
2022-12-25T18:28:06.153Z,17.93
2022-12-25T18:31:09.956Z,17.73
2022-12-25T18:34:12.958Z,19.67
2022-12-25T18:37:15.890Z,19.80
2022-12-25T18:40:20.302Z,21.70
2022-12-25T18:43:53.619Z,21.03
2022-12-25T18:46:46.601Z,20.90
2022-12-25T18:49:49.754Z,21.33
2022-12-25T18:52:52.804Z,23.10
2022-12-25T18:55:58.569Z,22.30
2022-12-25T18:59:01.753Z,21.53
2022-12-25T19:02:04.809Z,21.40
2022-12-25T19:05:08.379Z,20.10
2022-12-25T19:08:11.615Z,21.53
2022-12-25T19:11:16.681Z,20.70
2022-12-25T19:14:19.676Z,20.07
2022-12-25T19:17:29.615Z,20.40
2022-12-25T19:20:35.731Z,19.77
2022-12-25T19:23:39.052Z,18.97
2022-12-25T19:26:43.900Z,19.93
2022-12-25T19:29:46.922Z,18.90
2022-12-25T19:32:50.233Z,18.27
2022-12-25T19:35:53.210Z,18.23
2022-12-25T19:38:56.251Z,18.20
2022-12-25T19:42:00.654Z,17.83
2022-12-25T19:45:03.723Z,16.83
2022-12-25T19:48:07.260Z,16.83
2022-12-25T19:51:17.232Z,17.10
2022-12-25T19:54:22.879Z,16.20
2022-12-25T19:57:27.407Z,15.97
2022-12-25T20:00:30.379Z,16.23
2022-12-25T20:03:33.614Z,15.83
2022-12-25T20:06:39.323Z,14.60
2022-12-25T20:09:42.285Z,15.00
2022-12-25T20:12:46.688Z,15.00
2022-12-25T20:15:49.957Z,14.90
2022-12-25T20:18:53.339Z,15.90
2022-12-25T20:21:56.495Z,14.67
2022-12-25T20:24:59.984Z,14.00
2022-12-25T20:28:04.592Z,14.23
2022-12-25T20:31:09.056Z,14.80
2022-12-25T20:34:12.699Z,14.27
2022-12-25T20:37:15.711Z,14.30
2022-12-25T20:40:19.083Z,13.30
2022-12-25T20:43:23.493Z,13.70
2022-12-25T20:46:27.551Z,13.50
2022-12-25T20:49:32.602Z,14.40
2022-12-25T20:52:35.869Z,13.10
2022-12-25T20:55:38.959Z,13.03
2022-12-25T20:58:43.831Z,13.40
2022-12-25T21:01:47.921Z,15.90
2022-12-25T21:04:54.252Z,17.77
2022-12-25T21:07:57.411Z,18.90
2022-12-25T21:11:02.007Z,18.60
2022-12-25T21:14:06.616Z,17.73
2022-12-25T21:17:09.741Z,17.97
2022-12-25T21:20:13.227Z,17.97
2022-12-25T21:23:17.052Z,18.80
2022-12-25T21:26:22.422Z,17.53
2022-12-25T21:29:26.853Z,19.30
2022-12-25T21:32:46.954Z,17.00
2022-12-25T21:35:50.093Z,16.33
2022-12-25T21:38:56.092Z,16.63
2022-12-25T21:41:59.614Z,16.90
2022-12-25T21:45:04.073Z,17.57
2022-12-25T21:48:07.395Z,16.70
2022-12-25T21:51:31.906Z,16.27
2022-12-25T21:54:35.475Z,16.07
2022-12-25T21:57:38.601Z,16.20
2022-12-25T22:00:43.066Z,15.70
2022-12-25T22:03:46.353Z,14.87
2022-12-25T22:07:07.008Z,14.77
2022-12-25T22:10:10.335Z,15.63
2022-12-25T22:13:27.321Z,15.50
2022-12-25T22:16:49.338Z,15.33
2022-12-25T22:19:52.488Z,15.30
2022-12-25T22:22:55.742Z,13.90
2022-12-25T22:25:58.806Z,14.07
2022-12-25T22:29:02.017Z,14.07
2022-12-25T22:32:07.019Z,13.40
2022-12-25T22:35:12.345Z,13.03
2022-12-25T22:38:15.574Z,12.60
2022-12-25T22:41:18.549Z,12.83
2022-12-25T22:44:21.650Z,14.17
2022-12-25T22:47:26.013Z,13.00
2022-12-25T22:50:29.523Z,12.33
2022-12-25T22:53:32.502Z,12.30
2022-12-25T22:56:35.702Z,11.80
2022-12-25T22:59:38.783Z,12.43
2022-12-25T23:02:43.248Z,11.30
2022-12-25T23:05:46.489Z,11.93
2022-12-25T23:08:49.709Z,11.40
2022-12-25T23:11:52.757Z,11.80
2022-12-25T23:14:54.916Z,11.60
2022-12-25T23:18:16.978Z,11.63
2022-12-25T23:21:37.666Z,10.70
2022-12-25T23:24:58.036Z,11.47
2022-12-25T23:28:00.988Z,11.23
2022-12-25T23:31:03.096Z,11.00
2022-12-25T23:34:08.554Z,10.57
2022-12-25T23:37:12.545Z,9.73
2022-12-25T23:40:15.942Z,11.00
2022-12-25T23:43:18.968Z,10.27
2022-12-25T23:46:22.187Z,10.60
2022-12-25T23:49:26.959Z,10.87
2022-12-25T23:52:30.010Z,10.40
2022-12-25T23:55:34.741Z,11.50
2022-12-25T23:58:37.771Z,10.33
